sensor_id;sensor_type;location;lat;lon;timestamp;temperature;humidity
24176;DHT22;12324;48.146;11.502;2024-02-15T01:31:15;9.20;99.90
24176;DHT22;12324;48.146;11.502;2024-02-15T01:33:44;8.40;99.90
24176;DHT22;12324;48.146;11.502;2024-02-15T01:36:16;8.30;99.90
24176;DHT22;12324;48.146;11.502;2024-02-15T01:38:43;8.20;99.90
24176;DHT22;12324;48.146;11.502;2024-02-15T01:41:10;8.20;99.90
24176;DHT22;12324;48.146;11.502;2024-02-15T01:43:37;8.20;99.90
24176;DHT22;12324;48.146;11.502;2024-02-15T01:46:10;8.20;99.90
24176;DHT22;12324;48.146;11.502;2024-02-15T01:48:37;8.20;99.90
24176;DHT22;12324;48.146;11.502;2024-02-15T05:19:17;8.10;99.90
24176;DHT22;12324;48.146;11.502;2024-02-15T05:21:46;6.50;99.90
24176;DHT22;12324;48.146;11.502;2024-02-15T05:24:14;6.50;99.90
24176;DHT22;12324;48.146;11.502;2024-02-15T05:26:44;6.50;99.90
24176;DHT22;12324;48.146;11.502;2024-02-15T05:29:15;6.50;99.90
24176;DHT22;12324;48.146;11.502;2024-02-15T05:31:42;6.50;99.90
24176;DHT22;12324;48.146;11.502;2024-02-15T05:34:10;6.40;99.90
24176;DHT22;12324;48.146;11.502;2024-02-15T05:36:39;6.30;99.90
24176;DHT22;12324;48.146;11.502;2024-02-15T05:39:06;6.30;99.90
24176;DHT22;12324;48.146;11.502;2024-02-15T05:41:34;6.40;99.90
24176;DHT22;12324;48.146;11.502;2024-02-15T05:44:01;6.30;99.90
24176;DHT22;12324;48.146;11.502;2024-02-15T05:46:31;6.30;99.90
24176;DHT22;12324;48.146;11.502;2024-02-15T05:48:58;6.20;99.90
24176;DHT22;12324;48.146;11.502;2024-02-15T05:51:26;6.10;99.90
24176;DHT22;12324;48.146;11.502;2024-02-15T05:53:53;6.10;99.90
24176;DHT22;12324;48.146;11.502;2024-02-15T05:56:25;6.00;99.90
24176;DHT22;12324;48.146;11.502;2024-02-15T05:58:52;6.00;99.90
24176;DHT22;12324;48.146;11.502;2024-02-15T06:01:19;5.90;99.90
24176;DHT22;12324;48.146;11.502;2024-02-15T06:03:46;6.00;99.90
24176;DHT22;12324;48.146;11.502;2024-02-15T06:06:15;5.90;99.90
24176;DHT22;12324;48.146;11.502;2024-02-15T06:08:46;5.80;99.90
24176;DHT22;12324;48.146;11.502;2024-02-15T06:11:13;5.80;99.90
24176;DHT22;12324;48.146;11.502;2024-02-15T06:13:41;5.80;99.90
24176;DHT22;12324;48.146;11.502;2024-02-15T06:16:07;5.80;99.90
24176;DHT22;12324;48.146;11.502;2024-02-15T06:18:36;5.90;99.90
24176;DHT22;12324;48.146;11.502;2024-02-15T06:21:04;5.90;99.90
24176;DHT22;12324;48.146;11.502;2024-02-15T06:23:32;5.80;99.90
24176;DHT22;12324;48.146;11.502;2024-02-15T06:26:00;5.90;99.90
24176;DHT22;12324;48.146;11.502;2024-02-15T06:28:29;5.90;99.90
24176;DHT22;12324;48.146;11.502;2024-02-15T06:31:15;5.90;99.90
24176;DHT22;12324;48.146;11.502;2024-02-15T06:34:00;6.00;99.90
24176;DHT22;12324;48.146;11.502;2024-02-15T06:36:47;6.10;99.90
24176;DHT22;12324;48.146;11.502;2024-02-15T06:39:33;6.20;99.90
24176;DHT22;12324;48.146;11.502;2024-02-15T06:42:14;6.30;99.90
24176;DHT22;12324;48.146;11.502;2024-02-15T06:44:47;6.30;99.90
24176;DHT22;12324;48.146;11.502;2024-02-15T06:47:15;6.30;99.90
24176;DHT22;12324;48.146;11.502;2024-02-15T06:49:45;6.40;99.90
24176;DHT22;12324;48.146;11.502;2024-02-15T06:52:12;6.50;99.90
24176;DHT22;12324;48.146;11.502;2024-02-15T06:54:41;6.60;99.90
24176;DHT22;12324;48.146;11.502;2024-02-15T06:57:08;6.60;99.90
24176;DHT22;12324;48.146;11.502;2024-02-15T06:59:35;6.70;99.90
24176;DHT22;12324;48.146;11.502;2024-02-15T07:02:03;6.70;99.90
24176;DHT22;12324;48.146;11.502;2024-02-15T07:04:35;6.80;99.90
24176;DHT22;12324;48.146;11.502;2024-02-15T07:07:04;6.80;99.90
24176;DHT22;12324;48.146;11.502;2024-02-15T07:09:31;6.90;99.90
24176;DHT22;12324;48.146;11.502;2024-02-15T07:11:59;6.90;99.90
24176;DHT22;12324;48.146;11.502;2024-02-15T07:14:26;6.90;99.90
24176;DHT22;12324;48.146;11.502;2024-02-15T07:16:55;6.90;99.90
24176;DHT22;12324;48.146;11.502;2024-02-15T07:19:25;7.00;99.90
24176;DHT22;12324;48.146;11.502;2024-02-15T07:21:54;6.90;99.90
24176;DHT22;12324;48.146;11.502;2024-02-15T07:24:21;7.00;99.90
24176;DHT22;12324;48.146;11.502;2024-02-15T07:26:48;7.00;99.90
24176;DHT22;12324;48.146;11.502;2024-02-15T07:29:19;7.00;99.90
24176;DHT22;12324;48.146;11.502;2024-02-15T07:31:46;7.10;99.90
24176;DHT22;12324;48.146;11.502;2024-02-15T07:34:13;7.10;99.90
24176;DHT22;12324;48.146;11.502;2024-02-15T07:36:41;7.20;99.90
24176;DHT22;12324;48.146;11.502;2024-02-15T07:39:09;7.20;99.90
24176;DHT22;12324;48.146;11.502;2024-02-15T07:41:41;7.20;99.90
24176;DHT22;12324;48.146;11.502;2024-02-15T07:44:07;7.30;99.90
24176;DHT22;12324;48.146;11.502;2024-02-15T07:46:34;7.30;99.90
24176;DHT22;12324;48.146;11.502;2024-02-15T07:49:02;7.30;99.90
24176;DHT22;12324;48.146;11.502;2024-02-15T07:51:29;7.30;99.90
24176;DHT22;12324;48.146;11.502;2024-02-15T09:32:45;7.40;99.90
24176;DHT22;12324;48.146;11.502;2024-02-15T09:37:46;12.40;99.90
24176;DHT22;12324;48.146;11.502;2024-02-15T09:45:13;12.60;99.90
24176;DHT22;12324;48.146;11.502;2024-02-15T09:47:42;12.60;99.90
24176;DHT22;12324;48.146;11.502;2024-02-15T09:50:14;12.70;99.90
24176;DHT22;12324;48.146;11.502;2024-02-15T09:52:52;12.80;99.90
24176;DHT22;12324;48.146;11.502;2024-02-15T09:55:20;12.70;99.90
24176;DHT22;12324;48.146;11.502;2024-02-15T09:57:50;12.80;99.90
24176;DHT22;12324;48.146;11.502;2024-02-15T10:00:17;13.10;99.90
24176;DHT22;12324;48.146;11.502;2024-02-15T10:02:47;13.00;99.90
24176;DHT22;12324;48.146;11.502;2024-02-15T10:05:16;13.10;99.90
24176;DHT22;12324;48.146;11.502;2024-02-15T10:07:44;13.20;99.90
24176;DHT22;12324;48.146;11.502;2024-02-15T10:15:10;13.30;99.90
24176;DHT22;12324;48.146;11.502;2024-02-15T10:17:37;13.40;99.90
24176;DHT22;12324;48.146;11.502;2024-02-15T10:20:05;13.50;99.90
24176;DHT22;12324;48.146;11.502;2024-02-15T10:22:32;13.60;99.90
24176;DHT22;12324;48.146;11.502;2024-02-15T10:25:28;13.60;99.90
24176;DHT22;12324;48.146;11.502;2024-02-15T10:28:09;13.70;99.90
24176;DHT22;12324;48.146;11.502;2024-02-15T10:30:41;13.70;99.90
24176;DHT22;12324;48.146;11.502;2024-02-15T10:33:18;13.70;99.90
24176;DHT22;12324;48.146;11.502;2024-02-15T10:35:46;13.80;99.90
24176;DHT22;12324;48.146;11.502;2024-02-15T10:38:14;13.70;99.90
24176;DHT22;12324;48.146;11.502;2024-02-15T10:40:46;13.70;99.90
24176;DHT22;12324;48.146;11.502;2024-02-15T10:43:13;13.80;99.90
24176;DHT22;12324;48.146;11.502;2024-02-15T10:45:43;14.00;99.90
24176;DHT22;12324;48.146;11.502;2024-02-15T10:48:11;14.20;99.90
24176;DHT22;12324;48.146;11.502;2024-02-15T10:50:40;14.30;99.90
24176;DHT22;12324;48.146;11.502;2024-02-15T10:53:27;14.30;99.90
24176;DHT22;12324;48.146;11.502;2024-02-15T10:58:33;14.10;99.90
24176;DHT22;12324;48.146;11.502;2024-02-15T11:01:06;14.30;99.90
24176;DHT22;12324;48.146;11.502;2024-02-15T11:03:42;14.30;99.90
24176;DHT22;12324;48.146;11.502;2024-02-15T11:06:14;14.50;99.90
24176;DHT22;12324;48.146;11.502;2024-02-15T11:08:43;14.40;99.90
24176;DHT22;12324;48.146;11.502;2024-02-15T11:11:11;14.60;99.90
24176;DHT22;12324;48.146;11.502;2024-02-15T11:13:41;14.70;99.90
24176;DHT22;12324;48.146;11.502;2024-02-15T11:16:43;14.70;99.90
24176;DHT22;12324;48.146;11.502;2024-02-15T11:19:10;14.40;99.90
24176;DHT22;12324;48.146;11.502;2024-02-15T11:21:53;14.60;99.90
24176;DHT22;12324;48.146;11.502;2024-02-15T11:24:31;14.80;99.90
24176;DHT22;12324;48.146;11.502;2024-02-15T11:32:41;15.30;99.90
24176;DHT22;12324;48.146;11.502;2024-02-15T11:35:22;15.20;99.90
24176;DHT22;12324;48.146;11.502;2024-02-15T11:37:51;15.50;99.90
24176;DHT22;12324;48.146;11.502;2024-02-15T11:43:09;15.30;99.90
24176;DHT22;12324;48.146;11.502;2024-02-15T11:45:37;15.30;99.90
24176;DHT22;12324;48.146;11.502;2024-02-15T11:48:08;15.50;99.90
24176;DHT22;12324;48.146;11.502;2024-02-15T11:50:40;15.40;99.90
24176;DHT22;12324;48.146;11.502;2024-02-15T11:53:08;15.60;99.90
24176;DHT22;12324;48.146;11.502;2024-02-15T11:55:40;15.80;99.90
24176;DHT22;12324;48.146;11.502;2024-02-15T11:58:08;16.00;99.90
24176;DHT22;12324;48.146;11.502;2024-02-15T12:00:39;15.90;99.90
24176;DHT22;12324;48.146;11.502;2024-02-15T12:03:25;15.70;99.90
24176;DHT22;12324;48.146;11.502;2024-02-15T12:06:30;15.80;99.90
24176;DHT22;12324;48.146;11.502;2024-02-15T12:09:19;16.00;99.90
24176;DHT22;12324;48.146;11.502;2024-02-15T12:12:06;16.00;99.90
24176;DHT22;12324;48.146;11.502;2024-02-15T12:15:01;16.20;99.90
24176;DHT22;12324;48.146;11.502;2024-02-15T12:17:48;16.20;99.90
24176;DHT22;12324;48.146;11.502;2024-02-15T12:20:33;16.00;99.90
24176;DHT22;12324;48.146;11.502;2024-02-15T12:23:01;15.70;99.90
24176;DHT22;12324;48.146;11.502;2024-02-15T12:25:28;15.50;99.90
24176;DHT22;12324;48.146;11.502;2024-02-15T12:27:56;15.40;99.90
24176;DHT22;12324;48.146;11.502;2024-02-15T12:30:23;15.40;99.90
24176;DHT22;12324;48.146;11.502;2024-02-15T12:32:52;15.40;99.90
24176;DHT22;12324;48.146;11.502;2024-02-15T12:35:35;15.40;99.90
24176;DHT22;12324;48.146;11.502;2024-02-15T12:38:03;15.60;99.90
24176;DHT22;12324;48.146;11.502;2024-02-15T12:40:36;16.00;99.90
24176;DHT22;12324;48.146;11.502;2024-02-15T12:43:06;16.40;99.90
24176;DHT22;12324;48.146;11.502;2024-02-15T12:48:08;16.70;99.90
24176;DHT22;12324;48.146;11.502;2024-02-15T12:50:36;17.50;99.90
24176;DHT22;12324;48.146;11.502;2024-02-15T12:53:03;17.30;99.90
24176;DHT22;12324;48.146;11.502;2024-02-15T12:55:31;17.30;99.90
24176;DHT22;12324;48.146;11.502;2024-02-15T12:58:05;17.50;99.90
24176;DHT22;12324;48.146;11.502;2024-02-15T13:00:36;17.10;99.00
24176;DHT22;12324;48.146;11.502;2024-02-15T13:03:08;17.10;98.40
24176;DHT22;12324;48.146;11.502;2024-02-15T13:05:39;16.80;99.80
24176;DHT22;12324;48.146;11.502;2024-02-15T13:08:07;16.80;98.30
24176;DHT22;12324;48.146;11.502;2024-02-15T13:10:39;16.70;99.70
24176;DHT22;12324;48.146;11.502;2024-02-15T13:13:07;16.60;99.60
24176;DHT22;12324;48.146;11.502;2024-02-15T13:15:36;16.70;99.20
24176;DHT22;12324;48.146;11.502;2024-02-15T13:18:04;16.70;97.90
24176;DHT22;12324;48.146;11.502;2024-02-15T13:20:32;16.70;97.90
24176;DHT22;12324;48.146;11.502;2024-02-15T13:23:02;17.00;98.40
24176;DHT22;12324;48.146;11.502;2024-02-15T13:25:36;17.30;97.10
24176;DHT22;12324;48.146;11.502;2024-02-15T13:28:04;17.40;95.40
24176;DHT22;12324;48.146;11.502;2024-02-15T13:30:34;17.50;93.90
24176;DHT22;12324;48.146;11.502;2024-02-15T13:33:02;17.70;93.00
24176;DHT22;12324;48.146;11.502;2024-02-15T13:35:29;17.50;92.80
24176;DHT22;12324;48.146;11.502;2024-02-15T13:37:56;17.30;92.90
24176;DHT22;12324;48.146;11.502;2024-02-15T13:40:27;17.00;94.60
24176;DHT22;12324;48.146;11.502;2024-02-15T13:42:57;16.80;95.40
24176;DHT22;12324;48.146;11.502;2024-02-15T13:48:00;17.50;94.20
24176;DHT22;12324;48.146;11.502;2024-02-15T13:50:31;18.40;91.00
24176;DHT22;12324;48.146;11.502;2024-02-15T13:52:59;19.20;90.20
24176;DHT22;12324;48.146;11.502;2024-02-15T13:55:27;19.40;86.30
24176;DHT22;12324;48.146;11.502;2024-02-15T13:57:55;18.40;85.20
24176;DHT22;12324;48.146;11.502;2024-02-15T14:00:25;18.40;85.20
24176;DHT22;12324;48.146;11.502;2024-02-15T14:03:02;18.80;85.60
24176;DHT22;12324;48.146;11.502;2024-02-15T14:07:59;20.00;83.50
24176;DHT22;12324;48.146;11.502;2024-02-15T14:20:20;21.50;69.20
24176;DHT22;12324;48.146;11.502;2024-02-15T14:22:50;21.10;69.00
24176;DHT22;12324;48.146;11.502;2024-02-15T16:32:56;22.20;66.40
24176;DHT22;12324;48.146;11.502;2024-02-15T16:35:23;13.30;99.90
24176;DHT22;12324;48.146;11.502;2024-02-15T16:37:50;13.00;99.90
24176;DHT22;12324;48.146;11.502;2024-02-15T16:40:16;13.00;99.90
24176;DHT22;12324;48.146;11.502;2024-02-15T16:42:44;12.90;99.90
24176;DHT22;12324;48.146;11.502;2024-02-15T16:45:17;12.80;99.90
